sensor_id;sensor_type;location;lat;lon;timestamp;temperature;humidity
66144;SHT31;52947;50.842;6.084;2023-05-16T00:01:26;9.92;90.49
66144;SHT31;52947;50.842;6.084;2023-05-16T00:03:57;9.84;91.27
66144;SHT31;52947;50.842;6.084;2023-05-16T00:06:25;9.75;91.67
66144;SHT31;52947;50.842;6.084;2023-05-16T00:08:53;9.71;91.94
66144;SHT31;52947;50.842;6.084;2023-05-16T00:11:20;9.64;91.21
66144;SHT31;52947;50.842;6.084;2023-05-16T00:13:48;9.54;91.45
66144;SHT31;52947;50.842;6.084;2023-05-16T00:16:17;9.46;90.94
66144;SHT31;52947;50.842;6.084;2023-05-16T00:18:47;9.33;90.67
66144;SHT31;52947;50.842;6.084;2023-05-16T00:21:16;9.26;90.80
66144;SHT31;52947;50.842;6.084;2023-05-16T00:23:47;9.17;90.64
66144;SHT31;52947;50.842;6.084;2023-05-16T00:26:15;9.17;91.40
66144;SHT31;52947;50.842;6.084;2023-05-16T00:28:42;9.15;91.08
66144;SHT31;52947;50.842;6.084;2023-05-16T00:31:10;9.15;90.96
66144;SHT31;52947;50.842;6.084;2023-05-16T00:33:38;9.06;90.66
66144;SHT31;52947;50.842;6.084;2023-05-16T00:36:06;9.05;90.63
66144;SHT31;52947;50.842;6.084;2023-05-16T00:38:36;8.97;90.75
66144;SHT31;52947;50.842;6.084;2023-05-16T00:41:04;8.90;90.69
66144;SHT31;52947;50.842;6.084;2023-05-16T00:43:32;8.88;91.00
66144;SHT31;52947;50.842;6.084;2023-05-16T00:46:00;8.86;91.00
66144;SHT31;52947;50.842;6.084;2023-05-16T00:48:28;8.83;91.36
66144;SHT31;52947;50.842;6.084;2023-05-16T00:50:56;8.82;91.21
66144;SHT31;52947;50.842;6.084;2023-05-16T00:53:24;8.78;90.71
66144;SHT31;52947;50.842;6.084;2023-05-16T00:55:54;8.72;91.05
66144;SHT31;52947;50.842;6.084;2023-05-16T00:58:23;8.78;90.42
66144;SHT31;52947;50.842;6.084;2023-05-16T01:00:51;8.78;90.12
66144;SHT31;52947;50.842;6.084;2023-05-16T01:03:19;8.76;90.28
66144;SHT31;52947;50.842;6.084;2023-05-16T01:05:48;8.75;90.46
66144;SHT31;52947;50.842;6.084;2023-05-16T01:08:16;8.73;90.81
66144;SHT31;52947;50.842;6.084;2023-05-16T01:10:59;8.69;90.12
66144;SHT31;52947;50.842;6.084;2023-05-16T01:13:33;8.69;90.54
66144;SHT31;52947;50.842;6.084;2023-05-16T01:16:08;8.65;90.21
66144;SHT31;52947;50.842;6.084;2023-05-16T01:18:41;8.69;90.68
66144;SHT31;52947;50.842;6.084;2023-05-16T01:21:14;8.65;90.29
66144;SHT31;52947;50.842;6.084;2023-05-16T01:23:50;8.68;90.59
66144;SHT31;52947;50.842;6.084;2023-05-16T01:26:21;8.61;90.07
66144;SHT31;52947;50.842;6.084;2023-05-16T01:28:50;8.62;90.60
66144;SHT31;52947;50.842;6.084;2023-05-16T01:31:18;8.61;90.59
66144;SHT31;52947;50.842;6.084;2023-05-16T01:33:49;8.59;90.57
66144;SHT31;52947;50.842;6.084;2023-05-16T01:36:23;8.58;90.31
66144;SHT31;52947;50.842;6.084;2023-05-16T01:38:58;8.54;89.95
66144;SHT31;52947;50.842;6.084;2023-05-16T01:41:36;8.54;90.57
66144;SHT31;52947;50.842;6.084;2023-05-16T01:44:12;8.54;90.95
66144;SHT31;52947;50.842;6.084;2023-05-16T01:46:44;8.52;90.85
66144;SHT31;52947;50.842;6.084;2023-05-16T01:49:16;8.55;91.05
66144;SHT31;52947;50.842;6.084;2023-05-16T01:51:50;8.48;90.41
66144;SHT31;52947;50.842;6.084;2023-05-16T01:54:19;8.49;90.16
66144;SHT31;52947;50.842;6.084;2023-05-16T01:56:52;8.44;90.12
66144;SHT31;52947;50.842;6.084;2023-05-16T01:59:21;8.37;90.35
66144;SHT31;52947;50.842;6.084;2023-05-16T02:01:53;8.33;90.19
66144;SHT31;52947;50.842;6.084;2023-05-16T02:04:21;8.30;90.48
66144;SHT31;52947;50.842;6.084;2023-05-16T02:06:50;8.31;90.34
66144;SHT31;52947;50.842;6.084;2023-05-16T02:09:18;8.30;90.10
66144;SHT31;52947;50.842;6.084;2023-05-16T02:11:46;8.31;90.22
66144;SHT31;52947;50.842;6.084;2023-05-16T02:14:15;8.27;90.49
66144;SHT31;52947;50.842;6.084;2023-05-16T02:16:43;8.23;90.67
66144;SHT31;52947;50.842;6.084;2023-05-16T02:19:11;8.14;90.85
66144;SHT31;52947;50.842;6.084;2023-05-16T02:21:39;8.13;90.55
66144;SHT31;52947;50.842;6.084;2023-05-16T02:24:07;8.08;90.48
66144;SHT31;52947;50.842;6.084;2023-05-16T02:26:35;8.06;90.42
66144;SHT31;52947;50.842;6.084;2023-05-16T02:29:04;8.01;90.27
66144;SHT31;52947;50.842;6.084;2023-05-16T02:31:33;7.98;90.72
66144;SHT31;52947;50.842;6.084;2023-05-16T02:34:01;7.90;91.01
66144;SHT31;52947;50.842;6.084;2023-05-16T02:36:29;7.96;90.69
66144;SHT31;52947;50.842;6.084;2023-05-16T02:38:57;7.89;90.64
66144;SHT31;52947;50.842;6.084;2023-05-16T02:41:25;7.86;90.94
66144;SHT31;52947;50.842;6.084;2023-05-16T02:43:53;7.79;90.76
66144;SHT31;52947;50.842;6.084;2023-05-16T02:46:22;7.83;90.34
66144;SHT31;52947;50.842;6.084;2023-05-16T02:48:52;7.77;90.87
66144;SHT31;52947;50.842;6.084;2023-05-16T02:51:22;7.79;90.89
66144;SHT31;52947;50.842;6.084;2023-05-16T02:53:50;7.75;90.64
66144;SHT31;52947;50.842;6.084;2023-05-16T02:56:19;7.73;90.71
66144;SHT31;52947;50.842;6.084;2023-05-16T02:58:48;7.93;92.51
66144;SHT31;52947;50.842;6.084;2023-05-16T03:01:17;8.27;91.31
66144;SHT31;52947;50.842;6.084;2023-05-16T03:03:45;8.44;89.79
66144;SHT31;52947;50.842;6.084;2023-05-16T03:06:14;8.56;91.26
66144;SHT31;52947;50.842;6.084;2023-05-16T03:08:42;8.65;90.89
66144;SHT31;52947;50.842;6.084;2023-05-16T03:11:10;8.85;91.88
66144;SHT31;52947;50.842;6.084;2023-05-16T03:13:39;8.80;87.81
66144;SHT31;52947;50.842;6.084;2023-05-16T03:16:07;8.72;88.87
66144;SHT31;52947;50.842;6.084;2023-05-16T03:18:35;8.56;87.90
66144;SHT31;52947;50.842;6.084;2023-05-16T03:21:04;8.78;90.40
66144;SHT31;52947;50.842;6.084;2023-05-16T03:23:33;8.76;90.47
66144;SHT31;52947;50.842;6.084;2023-05-16T03:26:03;8.47;89.16
66144;SHT31;52947;50.842;6.084;2023-05-16T03:28:31;8.45;88.90
66144;SHT31;52947;50.842;6.084;2023-05-16T03:30:59;8.51;89.87
66144;SHT31;52947;50.842;6.084;2023-05-16T03:33:27;8.45;88.71
66144;SHT31;52947;50.842;6.084;2023-05-16T03:35:55;8.34;88.88
66144;SHT31;52947;50.842;6.084;2023-05-16T03:38:23;8.23;89.56
66144;SHT31;52947;50.842;6.084;2023-05-16T03:40:52;8.30;89.65
66144;SHT31;52947;50.842;6.084;2023-05-16T03:43:20;8.20;90.40
66144;SHT31;52947;50.842;6.084;2023-05-16T03:45:48;8.17;89.46
66144;SHT31;52947;50.842;6.084;2023-05-16T03:48:16;8.16;89.28
66144;SHT31;52947;50.842;6.084;2023-05-16T03:50:44;8.11;91.47
66144;SHT31;52947;50.842;6.084;2023-05-16T03:53:12;7.98;89.25
66144;SHT31;52947;50.842;6.084;2023-05-16T03:55:40;7.90;90.92
66144;SHT31;52947;50.842;6.084;2023-05-16T03:58:09;7.89;90.14
66144;SHT31;52947;50.842;6.084;2023-05-16T04:00:38;7.84;91.07
66144;SHT31;52947;50.842;6.084;2023-05-16T04:03:06;7.84;90.88
66144;SHT31;52947;50.842;6.084;2023-05-16T04:05:34;8.23;92.74
66144;SHT31;52947;50.842;6.084;2023-05-16T04:08:02;8.10;90.66
66144;SHT31;52947;50.842;6.084;2023-05-16T04:10:30;8.48;93.82
66144;SHT31;52947;50.842;6.084;2023-05-16T04:12:58;8.78;90.19
66144;SHT31;52947;50.842;6.084;2023-05-16T04:15:27;8.78;88.74
66144;SHT31;52947;50.842;6.084;2023-05-16T04:17:55;8.90;88.20
66144;SHT31;52947;50.842;6.084;2023-05-16T04:20:23;8.92;88.71
66144;SHT31;52947;50.842;6.084;2023-05-16T04:22:51;8.89;86.75
66144;SHT31;52947;50.842;6.084;2023-05-16T04:25:19;9.12;88.11
66144;SHT31;52947;50.842;6.084;2023-05-16T04:27:47;9.17;85.94
66144;SHT31;52947;50.842;6.084;2023-05-16T04:30:15;9.48;85.64
66144;SHT31;52947;50.842;6.084;2023-05-16T04:32:44;9.95;86.58
66144;SHT31;52947;50.842;6.084;2023-05-16T04:35:12;10.30;84.29
66144;SHT31;52947;50.842;6.084;2023-05-16T04:37:40;10.48;83.65
66144;SHT31;52947;50.842;6.084;2023-05-16T04:40:08;10.70;84.07
66144;SHT31;52947;50.842;6.084;2023-05-16T04:42:36;11.00;84.32
66144;SHT31;52947;50.842;6.084;2023-05-16T04:45:05;10.83;82.83
66144;SHT31;52947;50.842;6.084;2023-05-16T04:47:36;10.81;82.88
66144;SHT31;52947;50.842;6.084;2023-05-16T04:50:07;11.03;83.88
66144;SHT31;52947;50.842;6.084;2023-05-16T04:52:35;11.22;82.30
66144;SHT31;52947;50.842;6.084;2023-05-16T04:55:04;10.83;81.65
66144;SHT31;52947;50.842;6.084;2023-05-16T04:57:32;11.00;82.87
66144;SHT31;52947;50.842;6.084;2023-05-16T05:00:00;11.36;82.76
66144;SHT31;52947;50.842;6.084;2023-05-16T05:02:33;11.20;82.94
66144;SHT31;52947;50.842;6.084;2023-05-16T05:05:01;11.01;81.95
66144;SHT31;52947;50.842;6.084;2023-05-16T05:07:31;10.87;82.49
66144;SHT31;52947;50.842;6.084;2023-05-16T05:09:59;10.67;83.38
66144;SHT31;52947;50.842;6.084;2023-05-16T05:12:27;10.32;82.25
66144;SHT31;52947;50.842;6.084;2023-05-16T05:14:55;10.49;83.73
66144;SHT31;52947;50.842;6.084;2023-05-16T05:17:23;10.23;83.69
66144;SHT31;52947;50.842;6.084;2023-05-16T05:19:51;10.49;83.03
66144;SHT31;52947;50.842;6.084;2023-05-16T05:22:18;10.81;85.29
66144;SHT31;52947;50.842;6.084;2023-05-16T05:24:48;10.93;83.73
66144;SHT31;52947;50.842;6.084;2023-05-16T05:27:15;11.08;84.33
66144;SHT31;52947;50.842;6.084;2023-05-16T05:29:43;11.17;82.54
66144;SHT31;52947;50.842;6.084;2023-05-16T05:32:11;11.12;84.31
66144;SHT31;52947;50.842;6.084;2023-05-16T05:34:39;11.10;83.27
66144;SHT31;52947;50.842;6.084;2023-05-16T05:37:07;11.52;81.82
66144;SHT31;52947;50.842;6.084;2023-05-16T05:39:35;11.82;80.69
66144;SHT31;52947;50.842;6.084;2023-05-16T05:42:05;12.19;78.66
66144;SHT31;52947;50.842;6.084;2023-05-16T05:44:33;12.95;76.54
66144;SHT31;52947;50.842;6.084;2023-05-16T05:47:03;13.77;76.75
66144;SHT31;52947;50.842;6.084;2023-05-16T05:49:32;13.88;74.69
66144;SHT31;52947;50.842;6.084;2023-05-16T05:52:01;13.32;76.53
66144;SHT31;52947;50.842;6.084;2023-05-16T05:54:29;12.94;76.32
66144;SHT31;52947;50.842;6.084;2023-05-16T05:56:57;13.32;76.84
66144;SHT31;52947;50.842;6.084;2023-05-16T05:59:26;13.23;75.58
66144;SHT31;52947;50.842;6.084;2023-05-16T06:01:54;13.18;74.93
66144;SHT31;52947;50.842;6.084;2023-05-16T06:04:22;13.22;74.20
66144;SHT31;52947;50.842;6.084;2023-05-16T06:06:50;13.05;74.90
66144;SHT31;52947;50.842;6.084;2023-05-16T06:09:19;13.19;75.63
66144;SHT31;52947;50.842;6.084;2023-05-16T06:11:48;13.36;75.80
66144;SHT31;52947;50.842;6.084;2023-05-16T06:14:16;13.16;74.74
66144;SHT31;52947;50.842;6.084;2023-05-16T06:16:45;13.33;75.14
66144;SHT31;52947;50.842;6.084;2023-05-16T06:19:13;13.63;74.17
66144;SHT31;52947;50.842;6.084;2023-05-16T06:21:42;13.84;75.43
66144;SHT31;52947;50.842;6.084;2023-05-16T06:24:10;14.22;73.49
66144;SHT31;52947;50.842;6.084;2023-05-16T06:26:38;13.84;72.57
66144;SHT31;52947;50.842;6.084;2023-05-16T06:29:06;14.18;72.75
66144;SHT31;52947;50.842;6.084;2023-05-16T06:31:34;14.10;72.27
66144;SHT31;52947;50.842;6.084;2023-05-16T06:34:03;14.34;73.14
66144;SHT31;52947;50.842;6.084;2023-05-16T06:36:31;14.11;71.77
66144;SHT31;52947;50.842;6.084;2023-05-16T06:38:59;13.67;72.54
66144;SHT31;52947;50.842;6.084;2023-05-16T06:41:27;13.35;74.28
66144;SHT31;52947;50.842;6.084;2023-05-16T06:43:55;12.72;75.05
66144;SHT31;52947;50.842;6.084;2023-05-16T06:46:23;12.65;76.56
66144;SHT31;52947;50.842;6.084;2023-05-16T06:48:51;12.95;76.11
66144;SHT31;52947;50.842;6.084;2023-05-16T06:51:21;12.67;76.39
66144;SHT31;52947;50.842;6.084;2023-05-16T06:53:48;12.23;76.04
66144;SHT31;52947;50.842;6.084;2023-05-16T06:56:16;12.30;75.70
66144;SHT31;52947;50.842;6.084;2023-05-16T06:58:44;12.55;76.45
66144;SHT31;52947;50.842;6.084;2023-05-16T07:01:12;12.48;76.70
66144;SHT31;52947;50.842;6.084;2023-05-16T07:03:40;11.87;75.47
66144;SHT31;52947;50.842;6.084;2023-05-16T07:06:08;11.79;77.17
66144;SHT31;52947;50.842;6.084;2023-05-16T07:08:37;11.41;78.39
66144;SHT31;52947;50.842;6.084;2023-05-16T07:11:05;11.52;79.47
66144;SHT31;52947;50.842;6.084;2023-05-16T07:13:33;11.59;78.43
66144;SHT31;52947;50.842;6.084;2023-05-16T07:16:02;12.55;76.58
66144;SHT31;52947;50.842;6.084;2023-05-16T07:18:30;15.00;71.25
66144;SHT31;52947;50.842;6.084;2023-05-16T07:20:57;15.28;67.86
66144;SHT31;52947;50.842;6.084;2023-05-16T07:23:26;16.91;62.09
66144;SHT31;52947;50.842;6.084;2023-05-16T07:25:55;17.99;61.54
66144;SHT31;52947;50.842;6.084;2023-05-16T07:28:23;17.01;58.49
66144;SHT31;52947;50.842;6.084;2023-05-16T07:30:51;18.36;58.38
66144;SHT31;52947;50.842;6.084;2023-05-16T07:33:20;20.26;55.28
66144;SHT31;52947;50.842;6.084;2023-05-16T07:35:48;21.27;52.48
66144;SHT31;52947;50.842;6.084;2023-05-16T07:38:16;22.94;49.40
66144;SHT31;52947;50.842;6.084;2023-05-16T07:40:44;23.08;48.55
66144;SHT31;52947;50.842;6.084;2023-05-16T07:43:14;21.22;50.88
66144;SHT31;52947;50.842;6.084;2023-05-16T07:45:41;19.71;53.13
66144;SHT31;52947;50.842;6.084;2023-05-16T07:48:09;18.03;59.15
66144;SHT31;52947;50.842;6.084;2023-05-16T07:50:37;18.30;55.80
66144;SHT31;52947;50.842;6.084;2023-05-16T07:53:05;16.45;59.68
66144;SHT31;52947;50.842;6.084;2023-05-16T07:55:33;15.57;62.43
66144;SHT31;52947;50.842;6.084;2023-05-16T07:58:01;14.89;64.09
66144;SHT31;52947;50.842;6.084;2023-05-16T08:00:31;14.21;66.13
66144;SHT31;52947;50.842;6.084;2023-05-16T08:02:59;14.61;65.96
66144;SHT31;52947;50.842;6.084;2023-05-16T08:05:28;15.24;62.50
66144;SHT31;52947;50.842;6.084;2023-05-16T08:07:56;15.94;61.14
66144;SHT31;52947;50.842;6.084;2023-05-16T08:10:24;16.22;59.60
66144;SHT31;52947;50.842;6.084;2023-05-16T08:12:52;15.55;61.11
66144;SHT31;52947;50.842;6.084;2023-05-16T08:15:20;15.13;63.14
66144;SHT31;52947;50.842;6.084;2023-05-16T08:17:49;15.23;63.39
66144;SHT31;52947;50.842;6.084;2023-05-16T08:20:17;16.61;58.46
66144;SHT31;52947;50.842;6.084;2023-05-16T08:22:45;18.03;56.80
66144;SHT31;52947;50.842;6.084;2023-05-16T08:25:13;20.14;53.39
66144;SHT31;52947;50.842;6.084;2023-05-16T08:27:41;20.21;49.88
66144;SHT31;52947;50.842;6.084;2023-05-16T08:30:11;21.47;47.66
66144;SHT31;52947;50.842;6.084;2023-05-16T08:32:39;21.26;48.45
66144;SHT31;52947;50.842;6.084;2023-05-16T08:35:09;21.86;46.95
66144;SHT31;52947;50.842;6.084;2023-05-16T08:37:38;21.62;46.60
66144;SHT31;52947;50.842;6.084;2023-05-16T08:40:08;21.47;46.75
66144;SHT31;52947;50.842;6.084;2023-05-16T08:42:37;21.85;47.02
66144;SHT31;52947;50.842;6.084;2023-05-16T08:45:07;21.94;46.16
66144;SHT31;52947;50.842;6.084;2023-05-16T08:47:38;21.50;46.82
66144;SHT31;52947;50.842;6.084;2023-05-16T08:50:09;18.73;51.07
66144;SHT31;52947;50.842;6.084;2023-05-16T08:52:38;17.59;54.31
66144;SHT31;52947;50.842;6.084;2023-05-16T08:55:08;17.17;55.69
66144;SHT31;52947;50.842;6.084;2023-05-16T08:57:37;16.36;59.34
66144;SHT31;52947;50.842;6.084;2023-05-16T09:00:07;16.83;56.11
66144;SHT31;52947;50.842;6.084;2023-05-16T09:02:38;16.77;55.51
66144;SHT31;52947;50.842;6.084;2023-05-16T09:05:10;18.51;52.87
66144;SHT31;52947;50.842;6.084;2023-05-16T09:07:39;18.58;51.62
66144;SHT31;52947;50.842;6.084;2023-05-16T09:10:08;19.54;49.52
66144;SHT31;52947;50.842;6.084;2023-05-16T09:12:39;19.73;49.87
66144;SHT31;52947;50.842;6.084;2023-05-16T09:15:08;19.22;49.97
66144;SHT31;52947;50.842;6.084;2023-05-16T09:17:38;20.52;49.66
66144;SHT31;52947;50.842;6.084;2023-05-16T09:20:12;20.66;46.73
66144;SHT31;52947;50.842;6.084;2023-05-16T09:22:49;20.79;44.53
66144;SHT31;52947;50.842;6.084;2023-05-16T09:25:19;21.24;45.26
66144;SHT31;52947;50.842;6.084;2023-05-16T09:27:58;20.08;46.46
66144;SHT31;52947;50.842;6.084;2023-05-16T09:30:28;21.85;44.33
66144;SHT31;52947;50.842;6.084;2023-05-16T09:32:56;21.88;43.83
66144;SHT31;52947;50.842;6.084;2023-05-16T09:35:26;19.54;47.83
66144;SHT31;52947;50.842;6.084;2023-05-16T09:37:57;18.91;49.49
66144;SHT31;52947;50.842;6.084;2023-05-16T09:40:25;18.43;53.17
66144;SHT31;52947;50.842;6.084;2023-05-16T09:43:01;17.25;53.72
66144;SHT31;52947;50.842;6.084;2023-05-16T09:45:29;16.70;56.54
66144;SHT31;52947;50.842;6.084;2023-05-16T09:48:03;16.55;57.09
66144;SHT31;52947;50.842;6.084;2023-05-16T09:50:34;18.50;53.81
66144;SHT31;52947;50.842;6.084;2023-05-16T09:53:03;19.56;48.75
66144;SHT31;52947;50.842;6.084;2023-05-16T09:55:31;20.07;50.52
66144;SHT31;52947;50.842;6.084;2023-05-16T09:57:59;20.14;46.30
66144;SHT31;52947;50.842;6.084;2023-05-16T10:00:28;19.43;48.06
66144;SHT31;52947;50.842;6.084;2023-05-16T10:02:57;20.14;46.68
66144;SHT31;52947;50.842;6.084;2023-05-16T10:05:30;19.49;47.66
66144;SHT31;52947;50.842;6.084;2023-05-16T10:08:01;18.34;49.06
66144;SHT31;52947;50.842;6.084;2023-05-16T10:10:30;18.38;50.97
66144;SHT31;52947;50.842;6.084;2023-05-16T10:13:00;19.16;47.90
66144;SHT31;52947;50.842;6.084;2023-05-16T10:15:31;19.78;46.07
66144;SHT31;52947;50.842;6.084;2023-05-16T10:17:59;20.32;45.11
66144;SHT31;52947;50.842;6.084;2023-05-16T10:20:29;20.65;46.50
66144;SHT31;52947;50.842;6.084;2023-05-16T10:22:57;20.56;45.91
66144;SHT31;52947;50.842;6.084;2023-05-16T10:25:28;19.29;47.57
66144;SHT31;52947;50.842;6.084;2023-05-16T10:27:58;17.51;50.24
66144;SHT31;52947;50.842;6.084;2023-05-16T10:30:27;16.98;53.98
66144;SHT31;52947;50.842;6.084;2023-05-16T10:32:55;16.80;56.24
66144;SHT31;52947;50.842;6.084;2023-05-16T10:35:23;16.53;54.20
66144;SHT31;52947;50.842;6.084;2023-05-16T10:37:53;16.71;55.45
66144;SHT31;52947;50.842;6.084;2023-05-16T10:40:21;18.37;52.65
66144;SHT31;52947;50.842;6.084;2023-05-16T10:42:55;19.36;50.06
66144;SHT31;52947;50.842;6.084;2023-05-16T10:45:23;18.87;50.98
66144;SHT31;52947;50.842;6.084;2023-05-16T10:47:53;18.79;50.31
66144;SHT31;52947;50.842;6.084;2023-05-16T10:50:35;17.87;51.24
66144;SHT31;52947;50.842;6.084;2023-05-16T10:53:14;17.22;51.67
66144;SHT31;52947;50.842;6.084;2023-05-16T10:58:42;19.81;47.65
66144;SHT31;52947;50.842;6.084;2023-05-16T11:01:14;19.67;47.81
66144;SHT31;52947;50.842;6.084;2023-05-16T11:04:01;20.36;46.80
66144;SHT31;52947;50.842;6.084;2023-05-16T11:06:31;20.79;45.55
66144;SHT31;52947;50.842;6.084;2023-05-16T11:09:12;20.05;47.77
66144;SHT31;52947;50.842;6.084;2023-05-16T11:11:46;18.60;49.84
66144;SHT31;52947;50.842;6.084;2023-05-16T11:14:20;18.04;51.88
66144;SHT31;52947;50.842;6.084;2023-05-16T11:16:49;17.61;52.98
66144;SHT31;52947;50.842;6.084;2023-05-16T11:19:29;17.28;52.81
66144;SHT31;52947;50.842;6.084;2023-05-16T11:24:52;18.23;51.39
66144;SHT31;52947;50.842;6.084;2023-05-16T11:27:22;18.84;50.72
66144;SHT31;52947;50.842;6.084;2023-05-16T11:29:53;18.20;51.91
66144;SHT31;52947;50.842;6.084;2023-05-16T11:32:22;17.90;50.59
66144;SHT31;52947;50.842;6.084;2023-05-16T11:34:51;19.16;50.11
66144;SHT31;52947;50.842;6.084;2023-05-16T11:37:20;19.09;48.10
66144;SHT31;52947;50.842;6.084;2023-05-16T11:39:48;19.36;49.44
66144;SHT31;52947;50.842;6.084;2023-05-16T11:42:16;20.01;45.77
66144;SHT31;52947;50.842;6.084;2023-05-16T11:44:44;20.15;45.49
66144;SHT31;52947;50.842;6.084;2023-05-16T11:47:14;19.52;47.35
66144;SHT31;52947;50.842;6.084;2023-05-16T11:49:42;20.15;48.48
66144;SHT31;52947;50.842;6.084;2023-05-16T11:52:10;19.70;48.43
66144;SHT31;52947;50.842;6.084;2023-05-16T11:54:39;19.37;51.12
66144;SHT31;52947;50.842;6.084;2023-05-16T11:57:08;18.40;49.91
66144;SHT31;52947;50.842;6.084;2023-05-16T11:59:36;18.13;50.42
66144;SHT31;52947;50.842;6.084;2023-05-16T12:02:05;17.56;51.43
66144;SHT31;52947;50.842;6.084;2023-05-16T12:04:36;17.04;51.17
66144;SHT31;52947;50.842;6.084;2023-05-16T12:07:05;16.71;54.62
66144;SHT31;52947;50.842;6.084;2023-05-16T12:09:32;16.26;53.49
66144;SHT31;52947;50.842;6.084;2023-05-16T12:12:03;16.18;54.83
66144;SHT31;52947;50.842;6.084;2023-05-16T12:14:32;16.36;56.48
66144;SHT31;52947;50.842;6.084;2023-05-16T12:17:00;16.10;56.19
66144;SHT31;52947;50.842;6.084;2023-05-16T12:19:30;16.12;56.94
66144;SHT31;52947;50.842;6.084;2023-05-16T12:22:00;15.82;55.94
66144;SHT31;52947;50.842;6.084;2023-05-16T12:24:29;15.62;57.14
66144;SHT31;52947;50.842;6.084;2023-05-16T12:26:57;16.85;54.56
66144;SHT31;52947;50.842;6.084;2023-05-16T12:29:25;17.83;51.63
66144;SHT31;52947;50.842;6.084;2023-05-16T12:31:53;17.94;52.52
66144;SHT31;52947;50.842;6.084;2023-05-16T12:34:21;18.68;51.00
66144;SHT31;52947;50.842;6.084;2023-05-16T12:36:51;18.75;50.95
66144;SHT31;52947;50.842;6.084;2023-05-16T12:39:21;19.02;50.52
66144;SHT31;52947;50.842;6.084;2023-05-16T12:41:49;19.77;48.97
66144;SHT31;52947;50.842;6.084;2023-05-16T12:44:18;19.84;48.77
66144;SHT31;52947;50.842;6.084;2023-05-16T12:46:48;20.56;48.37
66144;SHT31;52947;50.842;6.084;2023-05-16T12:49:19;19.37;50.37
66144;SHT31;52947;50.842;6.084;2023-05-16T12:51:48;19.88;48.00
66144;SHT31;52947;50.842;6.084;2023-05-16T12:54:17;19.33;47.63
66144;SHT31;52947;50.842;6.084;2023-05-16T12:56:47;18.82;48.64
66144;SHT31;52947;50.842;6.084;2023-05-16T12:59:15;17.80;47.76
66144;SHT31;52947;50.842;6.084;2023-05-16T13:01:45;17.52;49.64
66144;SHT31;52947;50.842;6.084;2023-05-16T13:04:13;16.63;50.85
66144;SHT31;52947;50.842;6.084;2023-05-16T13:06:45;15.98;54.56
66144;SHT31;52947;50.842;6.084;2023-05-16T13:09:24;15.65;54.46
66144;SHT31;52947;50.842;6.084;2023-05-16T13:11:58;15.97;55.42
66144;SHT31;52947;50.842;6.084;2023-05-16T13:14:26;16.92;55.17
66144;SHT31;52947;50.842;6.084;2023-05-16T13:16:54;17.19;51.68
66144;SHT31;52947;50.842;6.084;2023-05-16T13:19:22;16.30;53.33
66144;SHT31;52947;50.842;6.084;2023-05-16T13:21:50;16.52;57.06
66144;SHT31;52947;50.842;6.084;2023-05-16T13:24:18;16.34;54.72
66144;SHT31;52947;50.842;6.084;2023-05-16T13:26:46;16.39;52.52
66144;SHT31;52947;50.842;6.084;2023-05-16T13:29:15;16.28;53.10
66144;SHT31;52947;50.842;6.084;2023-05-16T13:31:43;16.38;51.91
66144;SHT31;52947;50.842;6.084;2023-05-16T13:34:11;16.97;52.79
66144;SHT31;52947;50.842;6.084;2023-05-16T13:36:39;17.35;49.87
66144;SHT31;52947;50.842;6.084;2023-05-16T13:39:19;17.32;49.72
66144;SHT31;52947;50.842;6.084;2023-05-16T13:41:47;17.42;49.18
66144;SHT31;52947;50.842;6.084;2023-05-16T13:44:17;17.68;51.59
66144;SHT31;52947;50.842;6.084;2023-05-16T13:46:45;17.48;48.48
66144;SHT31;52947;50.842;6.084;2023-05-16T13:49:13;17.25;49.15
66144;SHT31;52947;50.842;6.084;2023-05-16T13:51:41;17.22;48.71
66144;SHT31;52947;50.842;6.084;2023-05-16T13:54:09;17.35;48.47
66144;SHT31;52947;50.842;6.084;2023-05-16T13:56:37;17.52;49.16
66144;SHT31;52947;50.842;6.084;2023-05-16T13:59:05;17.15;48.10
66144;SHT31;52947;50.842;6.084;2023-05-16T14:01:37;16.85;48.76
66144;SHT31;52947;50.842;6.084;2023-05-16T14:04:05;17.11;49.42
66144;SHT31;52947;50.842;6.084;2023-05-16T14:06:34;16.10;50.18
66144;SHT31;52947;50.842;6.084;2023-05-16T14:09:02;16.52;50.07
66144;SHT31;52947;50.842;6.084;2023-05-16T14:11:30;16.30;49.12
66144;SHT31;52947;50.842;6.084;2023-05-16T14:13:57;15.75;50.11
66144;SHT31;52947;50.842;6.084;2023-05-16T14:16:25;15.64;50.88
66144;SHT31;52947;50.842;6.084;2023-05-16T14:18:56;15.62;51.30
66144;SHT31;52947;50.842;6.084;2023-05-16T14:21:24;15.54;52.33
66144;SHT31;52947;50.842;6.084;2023-05-16T14:23:52;15.72;50.86
66144;SHT31;52947;50.842;6.084;2023-05-16T14:26:20;15.54;52.21
66144;SHT31;52947;50.842;6.084;2023-05-16T14:28:50;15.40;52.17
66144;SHT31;52947;50.842;6.084;2023-05-16T14:31:18;15.14;52.58
66144;SHT31;52947;50.842;6.084;2023-05-16T14:33:46;14.97;53.70
66144;SHT31;52947;50.842;6.084;2023-05-16T14:36:16;15.02;54.44
66144;SHT31;52947;50.842;6.084;2023-05-16T14:38:43;14.82;54.80
66144;SHT31;52947;50.842;6.084;2023-05-16T14:41:11;15.07;55.40
66144;SHT31;52947;50.842;6.084;2023-05-16T14:43:39;15.13;55.02
66144;SHT31;52947;50.842;6.084;2023-05-16T14:46:07;15.11;54.87
66144;SHT31;52947;50.842;6.084;2023-05-16T14:48:35;15.11;56.02
66144;SHT31;52947;50.842;6.084;2023-05-16T14:51:03;14.97;56.69
66144;SHT31;52947;50.842;6.084;2023-05-16T14:53:32;15.03;56.25
66144;SHT31;52947;50.842;6.084;2023-05-16T14:56:00;15.00;56.05
66144;SHT31;52947;50.842;6.084;2023-05-16T14:58:29;14.65;55.37
66144;SHT31;52947;50.842;6.084;2023-05-16T15:00:57;14.71;56.21
66144;SHT31;52947;50.842;6.084;2023-05-16T15:03:25;14.61;56.51
66144;SHT31;52947;50.842;6.084;2023-05-16T15:05:53;14.73;55.96
66144;SHT31;52947;50.842;6.084;2023-05-16T15:08:22;14.86;56.58
66144;SHT31;52947;50.842;6.084;2023-05-16T15:10:51;15.06;56.31
66144;SHT31;52947;50.842;6.084;2023-05-16T15:13:19;15.24;55.88
66144;SHT31;52947;50.842;6.084;2023-05-16T15:15:47;15.33;54.84
66144;SHT31;52947;50.842;6.084;2023-05-16T15:18:14;15.33;56.04
66144;SHT31;52947;50.842;6.084;2023-05-16T15:20:42;15.17;55.26
66144;SHT31;52947;50.842;6.084;2023-05-16T15:23:10;15.16;55.99
66144;SHT31;52947;50.842;6.084;2023-05-16T15:25:38;15.16;56.56
66144;SHT31;52947;50.842;6.084;2023-05-16T15:28:08;15.28;56.42
66144;SHT31;52947;50.842;6.084;2023-05-16T15:30:35;15.30;56.26
66144;SHT31;52947;50.842;6.084;2023-05-16T15:33:03;15.30;56.07
66144;SHT31;52947;50.842;6.084;2023-05-16T15:35:31;15.28;56.71
66144;SHT31;52947;50.842;6.084;2023-05-16T15:37:59;15.38;56.48
66144;SHT31;52947;50.842;6.084;2023-05-16T15:40:27;15.22;56.62
66144;SHT31;52947;50.842;6.084;2023-05-16T15:42:55;15.26;55.62
66144;SHT31;52947;50.842;6.084;2023-05-16T15:45:24;15.16;55.38
66144;SHT31;52947;50.842;6.084;2023-05-16T15:47:53;15.04;55.96
66144;SHT31;52947;50.842;6.084;2023-05-16T15:50:21;15.00;55.76
66144;SHT31;52947;50.842;6.084;2023-05-16T15:52:49;15.02;55.74